Time;durP1;ratioP1;P1;durP2;ratioP2;P2;SDS_P1;SDS_P2;PMS_P1;PMS_P2;Temp;Humidity;BMP_temperature;BMP_pressure;BME280_temperature;BME280_humidity;BME280_pressure;Samples;Min_cycle;Max_cycle;Signal;HPM_P1;HPM_P2
2024/01/11 03:27:33;;;;;;;;;;;-5.40;99.90;;;;;;5559611;22;19939;-85
2024/01/11 03:35:55;;;;;;;;;;;-5.50;99.90;;;;;;5052901;22;19960;-84
2024/01/11 03:38:21;;;;;;;;;;;-5.60;99.90;;;;;;5052825;28;19928;-84
2024/01/11 03:40:46;;;;;;;;;;;-5.80;99.90;;;;;;5016708;28;19932;-85
2024/01/11 03:43:12;;;;;;;;;;;-5.10;99.90;;;;;;5024784;28;19921;-85
2024/01/11 03:45:38;;;;;;;;;;;-5.50;99.90;;;;;;5006498;23;19925;-85
2024/01/11 03:48:04;;;;;;;;;;;-5.60;99.90;;;;;;5017570;28;19928;-83
2024/01/11 03:50:29;;;;;;;;;;;-5.60;99.90;;;;;;5019694;28;19929;-84
2024/01/11 03:52:55;;;;;;;;;;;-5.90;99.90;;;;;;5017989;28;19921;-84
2024/01/11 03:55:20;;;;;;;;;;;-5.90;99.90;;;;;;5003400;28;19925;-83
2024/01/11 03:57:46;;;;;;;;;;;-3.20;99.90;;;;;;5000596;28;19925;-85
2024/01/11 04:00:12;;;;;;;;;;;-5.70;99.90;;;;;;5003263;28;19968;-84
2024/01/11 04:02:37;;;;;;;;;;;-5.60;99.90;;;;;;5019931;28;19929;-83
2024/01/11 04:05:03;;;;;;;;;;;-5.80;99.90;;;;;;5018691;28;20376;-84
2024/01/11 04:07:29;;;;;;;;;;;-5.70;99.90;;;;;;5019708;28;20043;-83
2024/01/11 04:09:54;;;;;;;;;;;-5.40;99.90;;;;;;5015528;28;19921;-84
2024/01/11 04:12:20;;;;;;;;;;;-5.70;99.90;;;;;;5035445;28;19932;-83
2024/01/11 04:14:45;;;;;;;;;;;-5.80;99.90;;;;;;5035462;28;19921;-84
2024/01/11 04:17:11;;;;;;;;;;;-5.80;99.90;;;;;;5019438;28;19953;-85
2024/01/11 04:19:37;;;;;;;;;;;-5.70;99.90;;;;;;5016026;28;20467;-84
2024/01/11 04:22:02;;;;;;;;;;;-5.10;99.90;;;;;;4987810;28;19925;-83
2024/01/11 04:24:28;;;;;;;;;;;-5.70;99.90;;;;;;5002264;28;20016;-82
2024/01/11 04:26:53;;;;;;;;;;;-5.90;99.90;;;;;;5026462;28;19944;-84
2024/01/11 04:29:19;;;;;;;;;;;-5.80;99.90;;;;;;5032013;28;19964;-84
2024/01/11 04:31:45;;;;;;;;;;;-5.80;99.90;;;;;;5035166;28;19921;-84
2024/01/11 04:34:10;;;;;;;;;;;-4.00;99.90;;;;;;5036560;28;19921;-84
2024/01/11 04:36:39;;;;;;;;;;;-5.70;99.90;;;;;;5003899;28;20400;-82
2024/01/11 04:39:07;;;;;;;;;;;-5.70;99.90;;;;;;4999155;28;20405;-84
2024/01/11 04:41:32;;;;;;;;;;;-5.70;99.90;;;;;;5014535;28;20000;-83
2024/01/11 04:43:58;;;;;;;;;;;-3.90;99.90;;;;;;5033083;28;20364;-84
2024/01/11 04:46:24;;;;;;;;;;;-6.00;99.90;;;;;;5034544;28;19921;-85
2024/01/11 04:48:50;;;;;;;;;;;-5.90;99.90;;;;;;5002129;28;19944;-84
2024/01/11 04:51:16;;;;;;;;;;;-6.00;99.90;;;;;;5018670;28;20395;-85
2024/01/11 04:53:42;;;;;;;;;;;-5.90;99.90;;;;;;5018516;28;20300;-84
2024/01/11 04:56:08;;;;;;;;;;;-6.00;99.90;;;;;;5018093;28;20006;-84
2024/01/11 04:58:35;;;;;;;;;;;-3.50;99.90;;;;;;5033967;28;19972;-84
2024/01/11 05:01:00;;;;;;;;;;;-5.90;99.90;;;;;;5017258;28;20016;-83
2024/01/11 05:03:26;;;;;;;;;;;-6.10;99.90;;;;;;5000770;28;19972;-82
2024/01/11 05:05:51;;;;;;;;;;;-5.10;99.90;;;;;;5022796;28;19968;-84
2024/01/11 05:08:17;;;;;;;;;;;-5.90;99.90;;;;;;4999046;28;19921;-83
2024/01/11 05:10:44;;;;;;;;;;;-6.30;99.90;;;;;;5033446;28;19921;-84
2024/01/11 05:13:10;;;;;;;;;;;-4.50;99.90;;;;;;5018429;28;19929;-83
2024/01/11 05:15:35;;;;;;;;;;;-3.70;99.90;;;;;;5000874;28;19947;-84
2024/01/11 05:18:01;;;;;;;;;;;-6.20;99.90;;;;;;5034738;28;19944;-84
2024/01/11 05:20:26;;;;;;;;;;;-6.20;99.90;;;;;;5027524;28;19951;-85
2024/01/11 05:22:52;;;;;;;;;;;-6.10;99.90;;;;;;5034350;28;19944;-84
2024/01/11 05:25:17;;;;;;;;;;;-6.20;99.90;;;;;;5010979;28;19921;-83
2024/01/11 05:27:43;;;;;;;;;;;-6.10;99.90;;;;;;5016534;28;19943;-84
2024/01/11 05:30:09;;;;;;;;;;;-3.80;99.90;;;;;;5000690;28;19921;-83
2024/01/11 05:32:35;;;;;;;;;;;-6.00;99.90;;;;;;5013787;28;19921;-83
2024/01/11 05:35:00;;;;;;;;;;;-6.10;99.90;;;;;;5015089;28;19928;-83
2024/01/11 05:37:26;;;;;;;;;;;-6.20;99.90;;;;;;5027001;28;19931;-84
2024/01/11 05:39:52;;;;;;;;;;;-6.20;99.90;;;;;;5033243;28;19932;-83
2024/01/11 05:42:17;;;;;;;;;;;-6.10;99.90;;;;;;5032911;28;20304;-84
2024/01/11 05:44:43;;;;;;;;;;;-5.90;99.90;;;;;;5016953;28;19988;-84
2024/01/11 05:47:09;;;;;;;;;;;-6.20;99.90;;;;;;5032688;28;19921;-84
2024/01/11 05:49:35;;;;;;;;;;;-6.20;99.90;;;;;;5001163;28;19944;-84
2024/01/11 05:52:00;;;;;;;;;;;-6.00;99.90;;;;;;5015929;28;19925;-84
2024/01/11 05:54:28;;;;;;;;;;;-5.90;99.90;;;;;;5017549;28;19968;-84
2024/01/11 05:56:56;;;;;;;;;;;-6.10;99.90;;;;;;5024661;28;19929;-83
2024/01/11 05:59:22;;;;;;;;;;;-3.80;99.90;;;;;;5033780;28;20452;-83
2024/01/11 06:01:47;;;;;;;;;;;-3.70;99.90;;;;;;5017244;28;19925;-84
2024/01/11 06:04:13;;;;;;;;;;;-6.00;99.90;;;;;;5017359;28;20373;-84
2024/01/11 06:06:39;;;;;;;;;;;-6.10;99.90;;;;;;5001786;28;19952;-83
2024/01/11 06:09:05;;;;;;;;;;;-4.20;99.90;;;;;;5025265;28;19929;-84
2024/01/11 06:11:31;;;;;;;;;;;-6.00;99.90;;;;;;4993116;28;20297;-85
2024/01/11 06:13:57;;;;;;;;;;;-3.80;99.90;;;;;;5013137;28;19921;-84
2024/01/11 06:16:22;;;;;;;;;;;-4.50;99.90;;;;;;5030703;28;20004;-83
2024/01/11 06:18:48;;;;;;;;;;;-6.00;99.90;;;;;;5029544;28;19960;-83
2024/01/11 06:21:15;;;;;;;;;;;-6.00;99.90;;;;;;5032108;28;19925;-84
2024/01/11 06:23:40;;;;;;;;;;;-6.10;99.90;;;;;;5000236;28;19932;-85
2024/01/11 06:26:07;;;;;;;;;;;-6.20;99.90;;;;;;5007560;28;20300;-83
2024/01/11 06:28:33;;;;;;;;;;;-6.20;99.90;;;;;;5014345;28;20015;-85
2024/01/11 06:30:58;;;;;;;;;;;-6.20;99.90;;;;;;5026463;28;20328;-83
2024/01/11 06:33:24;;;;;;;;;;;-6.30;99.90;;;;;;5028754;28;20018;-85
2024/01/11 06:35:49;;;;;;;;;;;-3.80;99.90;;;;;;5008836;28;19921;-84
2024/01/11 06:38:15;;;;;;;;;;;-6.20;99.90;;;;;;5010131;28;20435;-84
2024/01/11 06:40:41;;;;;;;;;;;-5.90;99.90;;;;;;5015908;28;19956;-83
2024/01/11 06:43:07;;;;;;;;;;;-4.60;99.90;;;;;;5030821;28;19929;-85
2024/01/11 06:45:32;;;;;;;;;;;-5.90;99.90;;;;;;5015474;28;19932;-84
2024/01/11 06:47:58;;;;;;;;;;;-5.80;99.90;;;;;;5030121;28;19921;-82
2024/01/11 06:50:24;;;;;;;;;;;-5.70;99.90;;;;;;5013149;28;20040;-82
2024/01/11 06:52:49;;;;;;;;;;;-5.90;99.90;;;;;;5015356;28;20416;-82
2024/01/11 06:55:15;;;;;;;;;;;-5.60;99.90;;;;;;5030642;28;19979;-82
2024/01/11 06:57:41;;;;;;;;;;;-5.60;99.90;;;;;;5000485;28;20365;-82
2024/01/11 07:00:07;;;;;;;;;;;-5.60;99.90;;;;;;5015261;28;19925;-82
2024/01/11 07:02:33;;;;;;;;;;;-5.40;99.90;;;;;;5032159;28;19921;-82
2024/01/11 07:04:58;;;;;;;;;;;-5.40;99.90;;;;;;5004362;28;20270;-83
2024/01/11 07:07:24;;;;;;;;;;;-5.40;99.90;;;;;;5011236;28;20361;-82
2024/01/11 07:09:49;;;;;;;;;;;-3.60;99.90;;;;;;4997321;28;19967;-82
2024/01/11 07:12:15;;;;;;;;;;;-5.20;99.90;;;;;;5015678;28;20109;-83
2024/01/11 07:14:42;;;;;;;;;;;-4.50;99.90;;;;;;4994713;28;19961;-83
2024/01/11 07:17:07;;;;;;;;;;;-3.10;99.90;;;;;;5011662;28;20288;-86
2024/01/11 07:19:33;;;;;;;;;;;-3.10;99.90;;;;;;4999499;28;19929;-82
2024/01/11 07:21:58;;;;;;;;;;;-4.60;99.90;;;;;;5012709;28;19933;-83
2024/01/11 07:24:25;;;;;;;;;;;-5.00;99.90;;;;;;5012976;28;19927;-82
2024/01/11 07:26:50;;;;;;;;;;;-5.10;99.90;;;;;;5014158;28;19928;-83
2024/01/11 07:29:16;;;;;;;;;;;-5.00;99.90;;;;;;5017635;28;20291;-84
2024/01/11 07:31:41;;;;;;;;;;;-4.90;99.90;;;;;;5018628;28;20273;-84
2024/01/11 07:34:07;;;;;;;;;;;-4.80;99.90;;;;;;5016665;28;19921;-84
2024/01/11 07:36:33;;;;;;;;;;;-4.80;99.90;;;;;;5009552;28;20001;-87
2024/01/11 07:38:58;;;;;;;;;;;-4.20;99.90;;;;;;5017388;28;19921;-83
2024/01/11 07:41:24;;;;;;;;;;;-4.70;99.90;;;;;;5029592;28;20012;-83
2024/01/11 07:43:49;;;;;;;;;;;-4.70;99.90;;;;;;5004183;28;20438;-84
2024/01/11 07:46:15;;;;;;;;;;;-2.70;99.90;;;;;;5005749;28;19925;-84
2024/01/11 07:48:41;;;;;;;;;;;-4.60;99.90;;;;;;5016517;28;19976;-83
2024/01/11 07:51:09;;;;;;;;;;;-4.90;99.90;;;;;;5034219;28;19922;-83
2024/01/11 07:53:40;;;;;;;;;;;-4.50;99.90;;;;;;5020227;28;19921;-84
2024/01/11 07:56:07;;;;;;;;;;;-4.50;99.90;;;;;;5000837;28;19929;-83
2024/01/11 07:58:32;;;;;;;;;;;-4.50;99.90;;;;;;5043460;28;20051;-83
2024/01/11 08:00:58;;;;;;;;;;;-4.10;99.90;;;;;;5003469;28;20003;-82
2024/01/11 08:03:23;;;;;;;;;;;-4.40;99.90;;;;;;5028117;28;19922;-83
2024/01/11 08:05:50;;;;;;;;;;;-4.40;99.90;;;;;;5007937;28;19921;-83
2024/01/11 08:08:16;;;;;;;;;;;-4.30;99.90;;;;;;5002901;28;19943;-84
2024/01/11 08:10:42;;;;;;;;;;;-4.20;99.90;;;;;;5000428;28;19928;-84
2024/01/11 08:13:13;;;;;;;;;;;-4.20;99.90;;;;;;5014782;28;19928;-84
2024/01/11 08:15:43;;;;;;;;;;;-4.10;99.90;;;;;;5001700;28;20377;-84
2024/01/11 08:18:09;;;;;;;;;;;-4.20;99.90;;;;;;5029768;28;19921;-83
2024/01/11 08:20:35;;;;;;;;;;;-4.00;99.90;;;;;;5025049;28;20020;-85
2024/01/11 08:23:01;;;;;;;;;;;-4.00;99.90;;;;;;4999435;28;19961;-84
2024/01/11 08:25:26;;;;;;;;;;;-4.00;99.90;;;;;;5017410;28;20327;-85
2024/01/11 08:27:52;;;;;;;;;;;-2.00;99.90;;;;;;5005477;28;19921;-84
2024/01/11 08:30:18;;;;;;;;;;;-3.90;99.90;;;;;;5018569;28;19944;-84
2024/01/11 08:32:43;;;;;;;;;;;-3.80;99.90;;;;;;5013927;28;19948;-84
2024/01/11 08:35:12;;;;;;;;;;;-1.60;99.90;;;;;;5008192;28;19928;-84
2024/01/11 08:37:38;;;;;;;;;;;-3.90;99.90;;;;;;5018947;28;19921;-84
2024/01/11 08:40:04;;;;;;;;;;;-3.80;99.90;;;;;;4995700;28;19925;-83
2024/01/11 08:42:30;;;;;;;;;;;-3.70;99.90;;;;;;5018952;28;19921;-83
2024/01/11 08:44:56;;;;;;;;;;;-3.80;99.90;;;;;;5016871;28;19925;-84
2024/01/11 08:47:21;;;;;;;;;;;-2.60;99.90;;;;;;5001250;28;19922;-85
2024/01/11 08:49:47;;;;;;;;;;;-3.60;99.90;;;;;;5008143;28;19921;-84
2024/01/11 08:52:13;;;;;;;;;;;-3.70;99.90;;;;;;5000892;28;19921;-84
2024/01/11 08:54:38;;;;;;;;;;;-1.30;99.90;;;;;;5018931;28;19921;-84
2024/01/11 08:57:04;;;;;;;;;;;-3.50;99.90;;;;;;4999436;28;19922;-85
2024/01/11 08:59:30;;;;;;;;;;;-3.50;99.90;;;;;;5015539;28;20321;-85
2024/01/11 09:01:55;;;;;;;;;;;-3.40;99.90;;;;;;5029815;28;19925;-84
2024/01/11 09:04:21;;;;;;;;;;;-2.60;99.90;;;;;;5004135;28;19936;-84
2024/01/11 09:06:46;;;;;;;;;;;-1.30;99.90;;;;;;4998729;28;19999;-83
2024/01/11 09:09:13;;;;;;;;;;;-1.10;99.90;;;;;;5016390;28;19925;-84
2024/01/11 09:11:39;;;;;;;;;;;-3.20;99.90;;;;;;5029318;28;19943;-83
2024/01/11 09:14:06;;;;;;;;;;;-3.10;99.90;;;;;;5016722;28;19976;-83
2024/01/11 09:16:31;;;;;;;;;;;-1.20;99.90;;;;;;5013770;28;19925;-83
2024/01/11 09:18:57;;;;;;;;;;;-2.40;99.90;;;;;;5031480;28;19921;-84
2024/01/11 09:21:22;;;;;;;;;;;-3.10;99.90;;;;;;5029422;28;20423;-83
2024/01/11 09:23:48;;;;;;;;;;;-2.90;99.90;;;;;;5031856;28;19921;-83
2024/01/11 09:26:14;;;;;;;;;;;-2.70;99.90;;;;;;4997700;28;19922;-83
2024/01/11 09:28:39;;;;;;;;;;;-2.80;99.90;;;;;;5033050;28;20435;-84
2024/01/11 09:31:05;;;;;;;;;;;-3.00;99.90;;;;;;5033621;28;19921;-85
2024/01/11 09:33:30;;;;;;;;;;;-2.80;99.90;;;;;;5033799;28;20411;-84
2024/01/11 09:35:56;;;;;;;;;;;-2.80;99.90;;;;;;5000553;28;19921;-85
2024/01/11 09:38:22;;;;;;;;;;;-2.70;99.90;;;;;;5002257;28;19925;-83
2024/01/11 09:40:57;;;;;;;;;;;-2.70;99.90;;;;;;4997927;28;20460;-83
2024/01/11 09:43:22;;;;;;;;;;;-1.00;99.90;;;;;;5028733;28;19921;-84
2024/01/11 09:45:49;;;;;;;;;;;-2.60;99.90;;;;;;4996431;28;19963;-83
2024/01/11 09:48:15;;;;;;;;;;;-1.10;99.90;;;;;;5015904;28;19921;-83
2024/01/11 09:50:40;;;;;;;;;;;-2.50;99.90;;;;;;5011776;28;19988;-83
2024/01/11 09:53:07;;;;;;;;;;;-0.40;99.90;;;;;;5000112;28;19928;-83
2024/01/11 09:55:33;;;;;;;;;;;-2.40;99.90;;;;;;5017287;28;20015;-84
2024/01/11 09:57:59;;;;;;;;;;;-1.30;99.90;;;;;;5032637;28;19932;-83
2024/01/11 10:00:25;;;;;;;;;;;-0.20;99.90;;;;;;5026995;28;19925;-83
2024/01/11 10:02:52;;;;;;;;;;;-1.30;99.90;;;;;;4995868;28;19952;-83
2024/01/11 10:05:18;;;;;;;;;;;-2.20;99.90;;;;;;5016694;28;19928;-83
2024/01/11 10:07:45;;;;;;;;;;;-0.40;99.90;;;;;;5000613;28;19921;-83
2024/01/11 10:10:11;;;;;;;;;;;-2.10;99.90;;;;;;5000017;28;20027;-84
2024/01/11 10:12:37;;;;;;;;;;;-1.60;99.90;;;;;;5032742;28;19960;-84
2024/01/11 10:15:09;;;;;;;;;;;-2.00;99.90;;;;;;5015796;28;19944;-84
2024/01/11 10:17:44;;;;;;;;;;;-1.90;99.90;;;;;;4994894;28;19928;-83
2024/01/11 10:20:11;;;;;;;;;;;-1.90;99.90;;;;;;5030856;28;20003;-84
2024/01/11 10:22:36;;;;;;;;;;;-1.90;99.90;;;;;;5008223;28;20274;-83
2024/01/11 10:25:09;;;;;;;;;;;-1.50;99.90;;;;;;5007689;28;19928;-83
2024/01/11 10:27:34;;;;;;;;;;;-1.70;99.90;;;;;;5005192;28;19969;-83
2024/01/11 10:30:00;;;;;;;;;;;-1.70;99.90;;;;;;4997970;28;19928;-83
2024/01/11 10:32:28;;;;;;;;;;;-1.10;99.90;;;;;;4999911;28;19925;-83
2024/01/11 10:34:53;;;;;;;;;;;-1.80;99.90;;;;;;5014986;28;20331;-84
2024/01/11 10:37:20;;;;;;;;;;;0.10;99.90;;;;;;5029619;28;19925;-83
2024/01/11 10:39:46;;;;;;;;;;;-1.70;99.90;;;;;;5014850;28;20272;-84
2024/01/11 10:42:13;;;;;;;;;;;-0.60;99.90;;;;;;4998786;28;19988;-83
2024/01/11 10:44:40;;;;;;;;;;;0.40;99.90;;;;;;5031699;28;19929;-83
2024/01/11 10:47:09;;;;;;;;;;;-1.40;99.90;;;;;;5031734;28;19921;-84
2024/01/11 10:49:36;;;;;;;;;;;0.40;99.90;;;;;;5015200;28;19937;-84
2024/01/11 10:52:04;;;;;;;;;;;-1.30;99.90;;;;;;5015503;28;19939;-83
2024/01/11 10:54:31;;;;;;;;;;;-1.20;99.90;;;;;;5007289;28;19929;-83
2024/01/11 10:56:59;;;;;;;;;;;0.70;99.90;;;;;;5005388;28;20027;-83
2024/01/11 10:59:25;;;;;;;;;;;0.80;99.90;;;;;;5019553;28;20256;-84
2024/01/11 11:01:56;;;;;;;;;;;-1.10;99.90;;;;;;5019947;28;19925;-84
2024/01/11 11:04:22;;;;;;;;;;;-1.00;99.90;;;;;;5027493;28;20412;-84
2024/01/11 11:07:07;;;;;;;;;;;0.90;99.90;;;;;;5031922;28;20454;-86
2024/01/11 11:09:36;;;;;;;;;;;-0.40;99.90;;;;;;5034747;28;19921;-86
2024/01/11 11:12:03;;;;;;;;;;;-0.90;99.90;;;;;;5033520;28;19921;-86
2024/01/11 11:14:29;;;;;;;;;;;-1.80;99.90;;;;;;5015741;28;20363;-85
2024/01/11 11:16:55;;;;;;;;;;;-0.80;99.90;;;;;;5035414;28;19921;-88
2024/01/11 11:19:21;;;;;;;;;;;-0.50;99.90;;;;;;5030645;28;19974;-85
2024/01/11 11:21:47;;;;;;;;;;;-0.70;99.90;;;;;;5012255;28;20012;-85
2024/01/11 11:24:13;;;;;;;;;;;1.30;99.90;;;;;;5012758;28;20009;-85
2024/01/11 11:26:39;;;;;;;;;;;-0.70;99.90;;;;;;5035549;28;19979;-85
2024/01/11 11:29:05;;;;;;;;;;;0.60;99.90;;;;;;4995814;28;19921;-85
2024/01/11 11:31:38;;;;;;;;;;;0.70;99.90;;;;;;5019914;28;19948;-85
2024/01/11 11:34:04;;;;;;;;;;;-0.60;99.90;;;;;;5014886;28;19972;-85
2024/01/11 11:36:30;;;;;;;;;;;-0.80;99.90;;;;;;5018865;28;19936;-84
2024/01/11 11:39:00;;;;;;;;;;;2.00;99.90;;;;;;5012184;28;19921;-87
2024/01/11 11:41:26;;;;;;;;;;;-0.50;99.90;;;;;;5010593;28;19933;-87
2024/01/11 11:43:52;;;;;;;;;;;0.20;99.90;;;;;;5018379;28;19928;-89
2024/01/11 11:46:19;;;;;;;;;;;-0.40;99.90;;;;;;5003096;28;20355;-89
2024/01/11 11:48:49;;;;;;;;;;;-0.50;99.90;;;;;;5017725;28;19960;-86
2024/01/11 11:51:15;;;;;;;;;;;-0.40;99.90;;;;;;5012688;28;19945;-86
2024/01/11 11:53:41;;;;;;;;;;;0.40;99.90;;;;;;5035544;28;19925;-86
2024/01/11 11:56:09;;;;;;;;;;;-0.40;99.90;;;;;;5000760;28;19921;-86
2024/01/11 11:58:35;;;;;;;;;;;-0.30;99.90;;;;;;5017667;28;20490;-86
2024/01/11 12:01:01;;;;;;;;;;;-0.40;99.90;;;;;;5017620;28;19929;-88
2024/01/11 12:03:37;;;;;;;;;;;0.90;99.90;;;;;;5017932;28;19925;-86
2024/01/11 12:06:03;;;;;;;;;;;-0.20;99.90;;;;;;5014440;28;19928;-86
2024/01/11 12:08:29;;;;;;;;;;;-0.20;99.90;;;;;;5014353;28;19929;-86
2024/01/11 12:10:55;;;;;;;;;;;1.60;99.90;;;;;;5002324;28;19929;-86
2024/01/11 12:13:20;;;;;;;;;;;-0.20;99.90;;;;;;5017671;28;20293;-87
2024/01/11 12:15:46;;;;;;;;;;;-0.20;99.90;;;;;;5034243;28;20423;-87
2024/01/11 12:18:12;;;;;;;;;;;0.90;99.90;;;;;;5023284;28;19932;-86
2024/01/11 12:20:37;;;;;;;;;;;1.40;99.90;;;;;;5017566;28;19933;-86
2024/01/11 12:23:04;;;;;;;;;;;0.90;99.90;;;;;;5013673;28;20008;-87
2024/01/11 12:25:31;;;;;;;;;;;-0.10;99.90;;;;;;5033889;28;19928;-86
2024/01/11 12:27:56;;;;;;;;;;;-0.10;99.90;;;;;;5015594;28;20012;-86
2024/01/11 12:30:23;;;;;;;;;;;0.10;99.90;;;;;;5017050;28;19963;-86
2024/01/11 12:32:49;;;;;;;;;;;1.00;99.90;;;;;;5033942;28;19921;-86
2024/01/11 12:35:15;;;;;;;;;;;0.00;99.90;;;;;;5025198;28;19922;-86
2024/01/11 12:37:41;;;;;;;;;;;0.10;99.90;;;;;;5031366;28;20015;-86
2024/01/11 12:40:10;;;;;;;;;;;0.80;99.90;;;;;;4995936;28;19949;-86
2024/01/11 12:42:35;;;;;;;;;;;0.10;99.90;;;;;;5000801;28;20001;-85
2024/01/11 12:45:01;;;;;;;;;;;1.60;99.90;;;;;;5000599;28;20455;-86
2024/01/11 12:47:27;;;;;;;;;;;0.10;99.90;;;;;;4997403;28;19925;-86
2024/01/11 12:49:53;;;;;;;;;;;0.10;99.90;;;;;;5014899;28;19921;-86
2024/01/11 12:52:21;;;;;;;;;;;0.30;99.90;;;;;;5006096;28;20323;-86
2024/01/11 12:54:47;;;;;;;;;;;0.10;99.90;;;;;;5008060;28;20365;-85
2024/01/11 12:57:17;;;;;;;;;;;1.90;99.90;;;;;;4995914;28;19952;-85
2024/01/11 12:59:43;;;;;;;;;;;1.30;99.90;;;;;;5015915;28;19976;-85
2024/01/11 13:02:12;;;;;;;;;;;1.70;99.90;;;;;;4996818;28;19933;-85
2024/01/11 13:04:38;;;;;;;;;;;1.90;99.90;;;;;;5024647;28;20012;-85
2024/01/11 13:07:04;;;;;;;;;;;2.00;99.90;;;;;;5015987;28;20012;-85
2024/01/11 13:09:29;;;;;;;;;;;0.10;99.90;;;;;;5015297;28;20285;-84
2024/01/11 13:11:55;;;;;;;;;;;0.20;99.90;;;;;;5009756;28;19929;-84
2024/01/11 13:14:20;;;;;;;;;;;1.50;99.90;;;;;;5014068;28;19928;-84
2024/01/11 13:16:46;;;;;;;;;;;0.20;99.90;;;;;;5009767;28;20261;-84
2024/01/11 13:19:12;;;;;;;;;;;0.20;99.90;;;;;;5014446;28;20054;-84
2024/01/11 13:21:38;;;;;;;;;;;0.20;99.90;;;;;;4996718;28;20008;-84
2024/01/11 13:24:03;;;;;;;;;;;1.10;99.90;;;;;;5013703;28;19921;-84
2024/01/11 13:26:29;;;;;;;;;;;0.20;99.90;;;;;;4995961;28;19921;-83
2024/01/11 13:28:55;;;;;;;;;;;1.70;99.90;;;;;;5014863;28;19921;-84
2024/01/11 13:31:20;;;;;;;;;;;1.80;99.90;;;;;;5012017;28;20201;-84
2024/01/11 13:33:46;;;;;;;;;;;0.30;99.90;;;;;;5012792;28;19961;-83
2024/01/11 13:36:12;;;;;;;;;;;0.30;99.90;;;;;;5014346;28;20446;-83
2024/01/11 13:38:37;;;;;;;;;;;0.30;99.90;;;;;;5011077;28;20373;-83
2024/01/11 13:41:05;;;;;;;;;;;0.30;99.90;;;;;;5010941;28;19976;-83
2024/01/11 13:43:30;;;;;;;;;;;0.30;99.90;;;;;;4997366;28;19930;-82
2024/01/11 13:45:56;;;;;;;;;;;0.70;99.90;;;;;;5028212;28;19925;-80
2024/01/11 13:48:21;;;;;;;;;;;0.80;99.90;;;;;;5015362;28;19921;-80
2024/01/11 13:50:47;;;;;;;;;;;0.30;99.90;;;;;;4998801;28;19921;-81
2024/01/11 13:53:13;;;;;;;;;;;0.30;99.90;;;;;;5009180;28;19921;-80
2024/01/11 13:55:39;;;;;;;;;;;1.50;99.90;;;;;;5033005;28;20051;-82
2024/01/11 13:58:05;;;;;;;;;;;0.30;99.90;;;;;;5013487;28;20361;-83
2024/01/11 14:00:30;;;;;;;;;;;1.60;99.90;;;;;;5014563;28;19936;-83
2024/01/11 14:02:56;;;;;;;;;;;0.30;99.90;;;;;;5014318;28;19921;-83
2024/01/11 14:05:21;;;;;;;;;;;0.30;99.90;;;;;;4999214;28;19947;-83
2024/01/11 14:07:47;;;;;;;;;;;0.40;99.90;;;;;;4991630;28;20369;-83
2024/01/11 14:10:14;;;;;;;;;;;0.70;99.90;;;;;;5015580;28;19921;-82
2024/01/11 14:12:40;;;;;;;;;;;1.50;99.90;;;;;;5009860;28;19921;-83
2024/01/11 14:15:06;;;;;;;;;;;1.00;99.90;;;;;;5014898;28;20051;-83
2024/01/11 14:17:32;;;;;;;;;;;0.30;99.90;;;;;;5013569;28;19925;-83
2024/01/11 14:19:59;;;;;;;;;;;1.80;99.90;;;;;;5029010;28;19925;-83
2024/01/11 14:22:25;;;;;;;;;;;0.30;99.90;;;;;;5012905;28;19980;-83
2024/01/11 14:24:51;;;;;;;;;;;2.00;99.90;;;;;;5013039;28;19925;-83
2024/01/11 14:27:16;;;;;;;;;;;0.40;99.90;;;;;;5007065;28;19948;-82
2024/01/11 14:29:42;;;;;;;;;;;0.70;99.90;;;;;;5025226;28;19921;-82
2024/01/11 14:32:08;;;;;;;;;;;0.50;99.90;;;;;;4998463;28;20324;-83
2024/01/11 14:34:33;;;;;;;;;;;0.30;99.90;;;;;;5001411;28;19987;-83
2024/01/11 14:36:59;;;;;;;;;;;2.30;99.90;;;;;;5015633;28;19931;-83
2024/01/11 14:39:25;;;;;;;;;;;0.60;99.90;;;;;;5022095;28;19921;-83
2024/01/11 14:41:54;;;;;;;;;;;1.80;99.90;;;;;;5010737;28;19926;-83
2024/01/11 14:44:19;;;;;;;;;;;1.60;99.90;;;;;;5009504;28;20012;-83
2024/01/11 14:46:45;;;;;;;;;;;1.10;99.90;;;;;;5013529;28;19921;-83
2024/01/11 14:49:11;;;;;;;;;;;0.30;99.90;;;;;;5010075;28;19925;-84
2024/01/11 14:51:37;;;;;;;;;;;1.00;99.90;;;;;;5007131;28;19925;-83
2024/01/11 14:54:03;;;;;;;;;;;0.30;99.90;;;;;;4997516;28;19921;-83
2024/01/11 14:56:30;;;;;;;;;;;0.30;99.90;;;;;;4993587;28;19921;-84
2024/01/11 14:58:55;;;;;;;;;;;0.30;99.90;;;;;;5015851;28;19928;-83
2024/01/11 15:01:21;;;;;;;;;;;0.50;99.90;;;;;;4999269;28;20304;-83
2024/01/11 15:03:47;;;;;;;;;;;0.30;99.90;;;;;;4992806;28;19964;-83
2024/01/11 15:06:13;;;;;;;;;;;0.30;99.90;;;;;;5012638;28;19963;-83
2024/01/11 15:08:38;;;;;;;;;;;0.30;99.90;;;;;;5014226;28;19921;-83
2024/01/11 15:11:04;;;;;;;;;;;1.50;99.90;;;;;;5030879;28;19921;-83
2024/01/11 15:13:30;;;;;;;;;;;0.90;99.90;;;;;;4995008;28;19921;-83
2024/01/11 15:15:56;;;;;;;;;;;0.60;99.90;;;;;;5001097;28;20250;-83
2024/01/11 15:18:22;;;;;;;;;;;0.30;99.90;;;;;;5012311;28;19927;-84
2024/01/11 15:20:47;;;;;;;;;;;2.30;99.90;;;;;;4998753;28;19987;-84
2024/01/11 15:23:13;;;;;;;;;;;0.40;99.90;;;;;;5003604;28;19944;-83
2024/01/11 15:25:38;;;;;;;;;;;0.40;99.90;;;;;;5010540;28;19971;-83
2024/01/11 15:28:04;;;;;;;;;;;1.80;99.90;;;;;;4994664;28;20313;-83
2024/01/11 15:30:29;;;;;;;;;;;0.40;99.90;;;;;;5012658;28;20368;-83
2024/01/11 15:32:55;;;;;;;;;;;0.40;99.90;;;;;;4996891;28;19967;-83
2024/01/11 15:35:20;;;;;;;;;;;2.00;99.90;;;;;;4997557;28;19925;-83
2024/01/11 15:37:46;;;;;;;;;;;2.40;99.90;;;;;;4996810;28;19928;-83
2024/01/11 15:40:12;;;;;;;;;;;0.40;99.90;;;;;;5012650;28;19921;-83
2024/01/11 15:42:38;;;;;;;;;;;0.80;99.90;;;;;;5018000;28;19921;-82
2024/01/11 15:45:05;;;;;;;;;;;1.20;99.90;;;;;;4996519;28;21172;-83
2024/01/11 15:47:31;;;;;;;;;;;0.40;99.90;;;;;;5035778;28;19947;-83
2024/01/11 15:49:58;;;;;;;;;;;0.60;99.90;;;;;;5033778;28;19921;-83
2024/01/11 15:52:24;;;;;;;;;;;1.00;99.90;;;;;;5000351;28;19967;-83
2024/01/11 15:54:49;;;;;;;;;;;0.40;99.90;;;;;;5015015;28;19961;-84
2024/01/11 15:57:15;;;;;;;;;;;2.30;99.90;;;;;;5026717;28;20384;-83
2024/01/11 15:59:41;;;;;;;;;;;1.30;99.90;;;;;;5000769;28;19931;-83
2024/01/11 16:02:08;;;;;;;;;;;0.40;99.90;;;;;;5016620;28;19926;-83
2024/01/11 16:04:34;;;;;;;;;;;0.40;99.90;;;;;;5013260;28;20820;-83
2024/01/11 16:07:00;;;;;;;;;;;2.20;99.90;;;;;;5018386;28;19955;-83
2024/01/11 16:09:25;;;;;;;;;;;1.80;99.90;;;;;;5033027;28;19925;-83
2024/01/11 16:11:51;;;;;;;;;;;2.10;99.90;;;;;;5034280;28;20304;-82
2024/01/11 16:14:16;;;;;;;;;;;0.40;99.90;;;;;;5002165;28;19921;-83
2024/01/11 16:16:42;;;;;;;;;;;2.20;99.90;;;;;;5002957;28;20328;-83
2024/01/11 16:19:08;;;;;;;;;;;1.70;99.90;;;;;;5034169;28;20331;-83
2024/01/11 16:21:33;;;;;;;;;;;0.40;99.90;;;;;;5027971;28;19976;-83
2024/01/11 16:23:59;;;;;;;;;;;0.40;99.90;;;;;;5006056;28;19928;-83
2024/01/11 16:26:24;;;;;;;;;;;0.40;99.90;;;;;;5000639;28;19921;-83
2024/01/11 16:28:50;;;;;;;;;;;0.40;99.90;;;;;;5011210;28;19937;-83
2024/01/11 16:31:17;;;;;;;;;;;0.70;99.90;;;;;;5018569;28;19991;-83
2024/01/11 16:33:43;;;;;;;;;;;1.80;99.90;;;;;;5016823;28;19944;-83
2024/01/11 16:36:09;;;;;;;;;;;0.70;99.90;;;;;;5020547;28;19921;-83
2024/01/11 16:38:38;;;;;;;;;;;0.40;99.90;;;;;;5031148;28;19921;-83
2024/01/11 16:41:03;;;;;;;;;;;0.40;99.90;;;;;;5016945;28;19947;-82
2024/01/11 16:43:31;;;;;;;;;;;0.40;99.90;;;;;;4996793;28;20403;-83
2024/01/11 16:45:57;;;;;;;;;;;0.90;99.90;;;;;;5025363;28;20384;-82
2024/01/11 16:48:22;;;;;;;;;;;0.40;99.90;;;;;;4997725;28;19913;-83
2024/01/11 16:50:48;;;;;;;;;;;0.70;99.90;;;;;;5017298;28;19991;-83
2024/01/11 16:53:14;;;;;;;;;;;2.10;99.90;;;;;;5014674;28;19932;-82
2024/01/11 16:55:43;;;;;;;;;;;0.90;99.90;;;;;;5033311;28;19975;-82
2024/01/11 16:58:10;;;;;;;;;;;0.40;99.90;;;;;;5015403;28;20320;-81
2024/01/11 17:00:37;;;;;;;;;;;0.40;99.90;;;;;;5018454;28;19925;-82
2024/01/11 17:03:03;;;;;;;;;;;0.40;99.90;;;;;;5000248;28;20410;-82
2024/01/11 17:05:28;;;;;;;;;;;0.40;99.90;;;;;;5033681;28;20011;-83
2024/01/11 17:07:54;;;;;;;;;;;0.40;99.90;;;;;;5014085;28;19964;-83
2024/01/11 17:10:20;;;;;;;;;;;1.40;99.90;;;;;;4998616;28;19929;-82
2024/01/11 17:12:45;;;;;;;;;;;0.90;99.90;;;;;;5013159;28;19921;-83
2024/01/11 17:15:13;;;;;;;;;;;2.00;99.90;;;;;;4996121;28;20630;-82
2024/01/11 17:17:39;;;;;;;;;;;1.50;99.90;;;;;;4994605;28;20008;-82
2024/01/11 17:20:06;;;;;;;;;;;0.40;99.90;;;;;;5010149;28;20011;-82
2024/01/11 17:22:31;;;;;;;;;;;0.40;99.90;;;;;;5010057;28;19964;-83
2024/01/11 17:24:57;;;;;;;;;;;0.40;99.90;;;;;;5000001;28;19983;-83
2024/01/11 17:27:23;;;;;;;;;;;0.70;99.90;;;;;;5014946;28;20270;-83
2024/01/11 17:29:49;;;;;;;;;;;1.00;99.90;;;;;;5016827;28;19928;-83
2024/01/11 17:32:14;;;;;;;;;;;0.50;99.90;;;;;;5013657;28;20277;-83
2024/01/11 17:34:40;;;;;;;;;;;2.30;99.90;;;;;;4997986;28;19925;-82
2024/01/11 17:37:05;;;;;;;;;;;0.40;99.90;;;;;;5031645;28;19925;-82
2024/01/11 17:39:31;;;;;;;;;;;0.90;99.90;;;;;;5013778;28;19960;-82
2024/01/11 17:41:59;;;;;;;;;;;0.50;99.90;;;;;;5012465;28;19932;-82
2024/01/11 17:44:25;;;;;;;;;;;0.70;99.90;;;;;;5015172;28;20047;-82
2024/01/11 17:46:51;;;;;;;;;;;0.90;99.90;;;;;;5014607;28;20018;-82
2024/01/11 17:49:17;;;;;;;;;;;0.50;99.90;;;;;;5015328;28;20389;-83